Flight Track Log - Related Links

Times and Time Zones

All times are in EDT time to prevent confusion due to time zone crossing. See the CEY501 flight status page for this flight to view local times or setup timezone preferences in your user account.

Time Position Orientation Groundspeed Altitude Reporting Facility
EDT Latitude Longitude Course Direction KTS MPH feet Rate Location/Type
Thu 11:31:23 AM 18.4667 -65.9833 317° Northwest 150 173 1,300  Level San Juan Center
Thu 11:32:24 AM 18.5000 -66.0167 317° Northwest 190 219 3,000 1,686 Climbing San Juan Center
Thu 11:33:24 AM 18.5333 -66.0500 317° Northwest 190 219 4,700 1,650 Climbing San Juan Center
Thu 11:34:24 AM 18.5333 -66.1000 270° West 190 219 6,300 1,537 Climbing San Juan Center
Thu 11:35:25 AM 18.4833 -66.1333 212° Southwest 170 196 7,800 1,438 Climbing San Juan Center
Thu 11:36:25 AM 18.4333 -66.1500 198° South 180 207 9,200 1,400 Climbing San Juan Center
Thu 11:37:25 AM 18.3833 -66.1667 198° South 180 207 10,600 1,300 Climbing San Juan Center
Thu 11:38:25 AM 18.3333 -66.1833 198° South 180 207 11,800 1,041 Climbing San Juan Center
Thu 11:39:26 AM 18.2833 -66.2000 198° South 190 219 12,700 942 Climbing San Juan Center
Thu 11:40:26 AM 18.2333 -66.2000 180° South 200 230 13,700 850 Climbing San Juan Center
Thu 11:41:26 AM 18.1833 -66.2167 198° South 200 230 14,400 645 Climbing San Juan Center
Thu 11:42:27 AM 18.1167 -66.2167 180° South 210 242 15,000 595 Climbing San Juan Center
Thu 11:43:27 AM 18.0667 -66.2167 180° South 220 253 15,600 650 Climbing San Juan Center
Thu 11:44:27 AM 18.0000 -66.2333 193° South 220 253 16,300 545 Climbing San Juan Center
Thu 11:45:28 AM 17.9500 -66.2333 204° Southwest 220 253 16,700 496 Climbing San Juan Center
Thu 11:46:28 AM 17.8833 -66.2500 193° South 220 253 17,300 500 Climbing San Juan Center
Thu 11:47:28 AM 17.8167 -66.2500 180° South 230 265 17,700 347 Climbing San Juan Center
Thu 11:48:29 AM 17.7333 -66.2667 191° South 230 265 18,000 149 Climbing San Juan Center
Thu 11:49:29 AM 17.6667 -66.2667 180° South 250 288 18,000  Level San Juan Center
Thu 11:50:29 AM 17.6000 -66.2667 180° South 260 299 18,000  Level San Juan Center
Thu 11:51:29 AM 17.5333 -66.2833 193° South 270 311 18,000  Level San Juan Center
Thu 11:52:29 AM 17.4500 -66.2833 180° South 270 311 18,000  Level San Juan Center
Thu 11:53:30 AM 17.3833 -66.3000 193° South 260 299 18,000  Level San Juan Center
Thu 11:54:30 AM 17.3167 -66.3167 193° South 260 299 18,000  Level San Juan Center
Thu 11:55:30 AM 17.2333 -66.3333 191° South 260 299 18,000  Level San Juan Center
Thu 11:56:31 AM 17.1667 -66.3500 193° South 270 311 18,000  Level San Juan Center
Thu 11:57:31 AM 17.0833 -66.3500 180° South 260 299 18,000  Level San Juan Center
Thu 11:58:31 AM 17.0167 -66.3667 193° South 260 299 18,000  Level San Juan Center
Thu 11:59:32 AM 16.9500 -66.3833 193° South 260 299 18,000 -99 Level San Juan Center
Thu 12:00:32 PM 16.8667 -66.4000 191° South 260 299 17,800 -150 Descending San Juan Center
Thu 12:01:32 PM 16.8000 -66.4000 180° South 260 299 17,700 -248 Descending San Juan Center
Thu 12:02:33 PM 16.7167 -66.4167 191° South 280 322 17,300 -446 Descending San Juan Center
Thu 12:03:33 PM 16.6500 -66.4333 193° South 280 322 16,800 -450 Descending San Juan Center
Thu 12:04:33 PM 16.5667 -66.4333 180° South 280 322 16,400 -397 Descending San Juan Center
Thu 12:05:34 PM 16.4833 -66.4500 191° South 290 334 16,000 -101 Descending San Juan Center
Thu 12:08:30 PM 16.2667 -66.5000 192° South 270 311 16,000  Level San Juan Center
Thu 12:09:30 PM 16.1833 -66.5167 191° South 260 299 16,000  Level San Juan Center
Thu 12:12:31 PM 15.9833 -66.5500 189° South 270 311 16,000  Level San Juan Center
Thu 12:14:00 PM 15.8795 -66.5660 188° South  Level FlightAware Approximate
Thu 12:21:00 PM 15.3920 -66.6377 182° South  Level FlightAware Approximate
Thu 12:22:00 PM 15.3213 -66.6399 182° South  Level FlightAware Approximate
Thu 12:23:00 PM 15.2506 -66.6421 182° South  Level FlightAware Approximate
Thu 12:24:00 PM 15.1799 -66.6442 182° South  Level FlightAware Approximate
Thu 12:25:00 PM 15.1092 -66.6464 182° South  Level FlightAware Approximate
Thu 12:26:00 PM 15.0385 -66.6486 182° South  Level FlightAware Approximate
Thu 12:27:00 PM 14.9678 -66.6508 182° South  Level FlightAware Approximate
Thu 12:28:00 PM 14.8970 -66.6529 182° South  Level FlightAware Approximate
Thu 12:29:00 PM 14.8263 -66.6551 182° South  Level FlightAware Approximate
Thu 12:30:00 PM 14.7556 -66.6573 182° South  Level FlightAware Approximate
Thu 12:31:00 PM 14.6849 -66.6595 182° South  Level FlightAware Approximate
Thu 12:32:00 PM 14.6142 -66.6616 182° South  Level FlightAware Approximate
Thu 12:33:00 PM 14.5435 -66.6638 182° South  Level FlightAware Approximate
Thu 12:34:00 PM 14.4728 -66.6660 182° South  Level FlightAware Approximate
Thu 12:35:00 PM 14.4021 -66.6667 180° South  Level FlightAware Approximate
Thu 12:36:00 PM 14.3313 -66.6667 180° South  Level FlightAware Approximate
Thu 12:37:00 PM 14.2606 -66.6667 180° South  Level FlightAware Approximate
Thu 12:38:00 PM 14.1898 -66.6667 180° South  Level FlightAware Approximate
Thu 12:39:00 PM 14.1191 -66.6667 180° South  Level FlightAware Approximate
Thu 12:40:00 PM 14.0483 -66.6667 180° South  Level FlightAware Approximate
Thu 12:41:00 PM 13.9776 -66.6667 180° South  Level FlightAware Approximate
Thu 12:42:00 PM 13.9069 -66.6667 180° South  Level FlightAware Approximate
Thu 12:43:00 PM 13.8361 -66.6667 180° South  Level FlightAware Approximate
Thu 12:44:00 PM 13.7654 -66.6667 180° South  Level FlightAware Approximate
Thu 12:45:00 PM 13.6946 -66.6667 180° South  Level FlightAware Approximate
Thu 12:46:00 PM 13.6239 -66.6667 180° South  Level FlightAware Approximate
Thu 12:47:00 PM 13.5532 -66.6667 180° South  Level FlightAware Approximate
Thu 12:48:00 PM 13.4824 -66.6667 180° South  Level FlightAware Approximate
Thu 12:49:00 PM 13.4117 -66.6667 180° South  Level FlightAware Approximate
Thu 12:50:00 PM 13.3409 -66.6667 180° South  Level FlightAware Approximate
Thu 12:51:00 PM 13.2702 -66.6667 180° South  Level FlightAware Approximate
Thu 12:52:00 PM 13.1994 -66.6667 180° South  Level FlightAware Approximate
Thu 12:53:00 PM 13.1287 -66.6667 180° South  Level FlightAware Approximate
Thu 12:54:00 PM 13.0580 -66.6667 180° South  Level FlightAware Approximate
Thu 12:55:00 PM 12.9872 -66.6667 180° South  Level FlightAware Approximate
Thu 12:56:00 PM 12.9165 -66.6667 180° South  Level FlightAware Approximate
Thu 12:57:00 PM 12.8457 -66.6667 180° South  Level FlightAware Approximate
Thu 12:58:00 PM 12.7750 -66.6667 180° South  Level FlightAware Approximate
Thu 12:59:00 PM 12.7043 -66.6667 180° South  Level FlightAware Approximate
Thu 01:00:00 PM 12.6335 -66.6667 180° South  Level FlightAware Approximate
Thu 01:01:00 PM 12.5628 -66.6667 180° South  Level FlightAware Approximate
Thu 01:02:00 PM 12.4920 -66.6667 180° South  Level FlightAware Approximate
Thu 01:03:00 PM 12.4213 -66.6667 180° South  Level FlightAware Approximate
Thu 01:04:00 PM 12.3505 -66.6667 180° South  Level FlightAware Approximate
Thu 01:05:00 PM 12.2798 -66.6667 180° South  Level FlightAware Approximate
Thu 01:06:00 PM 12.2091 -66.6667 180° South  Level FlightAware Approximate
Thu 01:07:00 PM 12.1383 -66.6667 180° South  Level FlightAware Approximate
Thu 01:08:00 PM 12.0676 -66.6667 180° South  Level FlightAware Approximate
Thu 01:09:00 PM 11.9968 -66.6667 180° South  Level FlightAware Approximate
Thu 01:10:00 PM 11.9263 -66.6683 193° South  Level FlightAware Approximate
Thu 01:11:00 PM 11.8573 -66.6846 193° South  Level FlightAware Approximate
Thu 01:12:00 PM 11.7884 -66.7008 193° South  Level FlightAware Approximate
Thu 01:13:00 PM 11.7195 -66.7170 193° South  Level FlightAware Approximate
Thu 01:14:00 PM 11.6505 -66.7332 193° South  Level FlightAware Approximate
Thu 01:15:00 PM 11.5816 -66.7494 193° South  Level FlightAware Approximate
Thu 01:16:00 PM 11.5127 -66.7657 193° South  Level FlightAware Approximate
Thu 01:17:00 PM 11.4437 -66.7819 193° South  Level FlightAware Approximate
Thu 01:18:00 PM 11.3748 -66.7981 193° South  Level FlightAware Approximate
Thu 01:19:00 PM 11.3054 -66.8122 191° South  Level FlightAware Approximate
Thu 01:20:00 PM 11.2360 -66.8261 191° South  Level FlightAware Approximate
Thu 01:21:00 PM 11.1672 -66.8427 196° South  Level FlightAware Approximate
Thu 01:22:00 PM 11.0991 -66.8622 196° South  Level FlightAware Approximate
Thu 01:23:00 PM 11.0300 -66.8773 191° South  Level FlightAware Approximate
Thu 01:24:00 PM 10.9613 -66.8944 196° South  Level FlightAware Approximate
Thu 01:25:00 PM 10.8932 -66.9138 196° South  Level FlightAware Approximate
Thu 01:26:00 PM 10.8258 -66.9241 224° Southwest  Level FlightAware Approximate
Thu 01:27:00 PM 10.7605 -66.9474 194° South  Level FlightAware Approximate
Thu 01:28:00 PM 10.6912 -66.9618 191° South  Level FlightAware Approximate
Thu 01:29:00 PM 10.6222 -66.9778 194° South  Level FlightAware Approximate
Thu 01:30:00 PM 10.6000 -66.9667 90° East  Level FlightAware Approximate
Thu 01:31:00 PM 10.6031 -66.9906 90° East  Level Estimated
Thu 01:32:00 PM 10.6031 -66.9906 90° East  Level Estimated
Thu 01:33:00 PM 10.6031 -66.9906 90° East  Level Estimated
Thu 01:34:00 PM 10.6031 -66.9906 90° East  Level Estimated
Thu 01:35:00 PM 10.6031 -66.9906 90° East  Level Estimated
Thu 01:36:00 PM 10.6031 -66.9906 90° East  Level Estimated
Thu 01:37:00 PM 10.6031 -66.9906 90° East  Level Estimated
Thu 01:38:00 PM 10.6031 -66.9906 90° East  Level Estimated
Thu 01:39:00 PM 10.6031 -66.9906 90° East  Level Estimated
Thu 01:40:00 PM 10.6031 -66.9906 90° East  Level Estimated
Thu 01:41:00 PM 10.6031 -66.9906 90° East  Level Estimated
Thu 01:42:00 PM 10.6031 -66.9906 90° East  Level Estimated
Thu 01:43:00 PM 10.6031 -66.9906 90° East  Level Estimated
Thu 01:44:00 PM 10.6031 -66.9906 90° East  Level Estimated
Thu 01:45:00 PM 10.6031 -66.9906 90° East  Level Estimated
Thu 01:46:00 PM 10.6031 -66.9906 90° East  Level Estimated
Thu 01:47:00 PM 10.6031 -66.9906 90° East  Level Estimated
Thu 01:48:00 PM 10.6031 -66.9906 90° East  Level Estimated
Thu 01:49:00 PM 10.6031 -66.9906 90° East  Level Estimated
Thu 01:50:00 PM 10.6031 -66.9906 90° East  Level Estimated

Login

Don't have an account? Register now (free) for customized features, flight alerts, and more!